sensor_id;sensor_type;location;lat;lon;timestamp;temperature;humidity
43627;DHT22;29217;52.586;13.442;2024-03-22T00:02:39;7.70;99.90
43627;DHT22;29217;52.586;13.442;2024-03-22T00:05:05;7.80;99.90
43627;DHT22;29217;52.586;13.442;2024-03-22T00:07:31;7.80;99.90
43627;DHT22;29217;52.586;13.442;2024-03-22T00:09:56;7.80;99.90
43627;DHT22;29217;52.586;13.442;2024-03-22T00:12:22;8.00;99.90
43627;DHT22;29217;52.586;13.442;2024-03-22T00:14:48;7.90;99.90
43627;DHT22;29217;52.586;13.442;2024-03-22T00:17:14;7.70;99.90
43627;DHT22;29217;52.586;13.442;2024-03-22T00:19:39;7.90;99.90
43627;DHT22;29217;52.586;13.442;2024-03-22T00:22:05;7.80;99.90
43627;DHT22;29217;52.586;13.442;2024-03-22T00:24:31;7.70;99.90
43627;DHT22;29217;52.586;13.442;2024-03-22T00:26:56;7.90;99.90
43627;DHT22;29217;52.586;13.442;2024-03-22T00:29:22;7.80;99.90
43627;DHT22;29217;52.586;13.442;2024-03-22T00:31:47;7.80;99.90
43627;DHT22;29217;52.586;13.442;2024-03-22T00:34:13;7.90;99.90
43627;DHT22;29217;52.586;13.442;2024-03-22T00:36:38;7.80;99.90
43627;DHT22;29217;52.586;13.442;2024-03-22T00:39:04;8.00;99.90
43627;DHT22;29217;52.586;13.442;2024-03-22T00:41:30;8.00;99.90
43627;DHT22;29217;52.586;13.442;2024-03-22T00:43:57;7.80;99.90
43627;DHT22;29217;52.586;13.442;2024-03-22T00:46:23;7.80;99.90
43627;DHT22;29217;52.586;13.442;2024-03-22T00:48:48;7.70;99.90
43627;DHT22;29217;52.586;13.442;2024-03-22T00:51:14;7.60;99.90
43627;DHT22;29217;52.586;13.442;2024-03-22T00:53:40;7.70;99.90
43627;DHT22;29217;52.586;13.442;2024-03-22T00:56:05;7.80;99.90
43627;DHT22;29217;52.586;13.442;2024-03-22T00:58:31;7.80;99.90
43627;DHT22;29217;52.586;13.442;2024-03-22T01:00:57;8.00;99.90
43627;DHT22;29217;52.586;13.442;2024-03-22T01:03:22;7.80;99.90
43627;DHT22;29217;52.586;13.442;2024-03-22T01:05:48;7.70;99.90
43627;DHT22;29217;52.586;13.442;2024-03-22T01:08:14;7.90;99.90
43627;DHT22;29217;52.586;13.442;2024-03-22T01:10:40;8.00;99.90
43627;DHT22;29217;52.586;13.442;2024-03-22T01:13:06;7.80;99.90
43627;DHT22;29217;52.586;13.442;2024-03-22T01:15:32;8.20;99.90
43627;DHT22;29217;52.586;13.442;2024-03-22T01:17:58;8.00;99.90
43627;DHT22;29217;52.586;13.442;2024-03-22T01:20:24;8.10;99.90
43627;DHT22;29217;52.586;13.442;2024-03-22T01:22:49;8.00;99.90
43627;DHT22;29217;52.586;13.442;2024-03-22T01:25:15;7.90;99.90
43627;DHT22;29217;52.586;13.442;2024-03-22T01:27:40;7.80;99.90
43627;DHT22;29217;52.586;13.442;2024-03-22T01:30:06;8.10;99.90
43627;DHT22;29217;52.586;13.442;2024-03-22T01:32:32;8.10;99.90
43627;DHT22;29217;52.586;13.442;2024-03-22T01:34:58;8.00;99.90
43627;DHT22;29217;52.586;13.442;2024-03-22T01:37:23;8.20;99.90
43627;DHT22;29217;52.586;13.442;2024-03-22T01:39:49;8.00;99.90
43627;DHT22;29217;52.586;13.442;2024-03-22T01:42:14;8.20;99.90
43627;DHT22;29217;52.586;13.442;2024-03-22T01:44:40;8.00;99.90
43627;DHT22;29217;52.586;13.442;2024-03-22T01:47:07;8.00;99.90
43627;DHT22;29217;52.586;13.442;2024-03-22T01:49:32;8.20;99.90
43627;DHT22;29217;52.586;13.442;2024-03-22T01:51:58;8.10;99.90
43627;DHT22;29217;52.586;13.442;2024-03-22T01:54:24;8.10;99.90
43627;DHT22;29217;52.586;13.442;2024-03-22T01:56:50;8.10;99.90
43627;DHT22;29217;52.586;13.442;2024-03-22T01:59:15;8.00;99.90
43627;DHT22;29217;52.586;13.442;2024-03-22T02:01:41;8.00;99.90
43627;DHT22;29217;52.586;13.442;2024-03-22T02:04:07;8.00;99.90
43627;DHT22;29217;52.586;13.442;2024-03-22T02:06:33;8.00;99.90
43627;DHT22;29217;52.586;13.442;2024-03-22T02:08:58;8.00;99.90
43627;DHT22;29217;52.586;13.442;2024-03-22T02:11:26;8.00;99.90
43627;DHT22;29217;52.586;13.442;2024-03-22T02:13:51;8.00;99.90
43627;DHT22;29217;52.586;13.442;2024-03-22T02:16:17;8.00;99.90
43627;DHT22;29217;52.586;13.442;2024-03-22T02:18:43;8.00;99.90
43627;DHT22;29217;52.586;13.442;2024-03-22T02:21:10;8.00;99.90
43627;DHT22;29217;52.586;13.442;2024-03-22T02:23:37;8.00;99.90
43627;DHT22;29217;52.586;13.442;2024-03-22T02:26:03;8.00;99.90
43627;DHT22;29217;52.586;13.442;2024-03-22T02:28:30;8.00;99.90
43627;DHT22;29217;52.586;13.442;2024-03-22T02:30:57;8.00;99.90
43627;DHT22;29217;52.586;13.442;2024-03-22T02:33:23;8.00;99.90
43627;DHT22;29217;52.586;13.442;2024-03-22T02:35:49;8.00;99.90
43627;DHT22;29217;52.586;13.442;2024-03-22T02:38:15;8.00;99.90
43627;DHT22;29217;52.586;13.442;2024-03-22T02:40:43;8.00;99.90
43627;DHT22;29217;52.586;13.442;2024-03-22T02:43:09;8.00;99.90
43627;DHT22;29217;52.586;13.442;2024-03-22T02:45:35;8.00;99.90
43627;DHT22;29217;52.586;13.442;2024-03-22T02:48:00;8.00;99.90
43627;DHT22;29217;52.586;13.442;2024-03-22T02:50:26;8.00;99.90
43627;DHT22;29217;52.586;13.442;2024-03-22T02:52:52;8.00;99.90
43627;DHT22;29217;52.586;13.442;2024-03-22T02:55:17;8.00;99.90
43627;DHT22;29217;52.586;13.442;2024-03-22T02:57:43;8.00;99.90
43627;DHT22;29217;52.586;13.442;2024-03-22T03:00:09;8.00;99.90
43627;DHT22;29217;52.586;13.442;2024-03-22T03:02:35;8.00;99.90
43627;DHT22;29217;52.586;13.442;2024-03-22T03:05:01;8.00;99.90
43627;DHT22;29217;52.586;13.442;2024-03-22T03:07:27;8.00;99.90
43627;DHT22;29217;52.586;13.442;2024-03-22T03:09:53;8.10;99.90
43627;DHT22;29217;52.586;13.442;2024-03-22T03:12:19;8.10;99.90
43627;DHT22;29217;52.586;13.442;2024-03-22T03:14:44;8.10;99.90
43627;DHT22;29217;52.586;13.442;2024-03-22T03:17:10;8.10;99.90
43627;DHT22;29217;52.586;13.442;2024-03-22T03:19:36;8.00;99.90
43627;DHT22;29217;52.586;13.442;2024-03-22T03:22:02;8.00;99.90
43627;DHT22;29217;52.586;13.442;2024-03-22T03:24:27;8.00;99.90
43627;DHT22;29217;52.586;13.442;2024-03-22T03:26:53;8.00;99.90
43627;DHT22;29217;52.586;13.442;2024-03-22T03:29:19;8.00;99.90
43627;DHT22;29217;52.586;13.442;2024-03-22T03:31:44;8.00;99.90
43627;DHT22;29217;52.586;13.442;2024-03-22T03:34:10;8.00;99.90
43627;DHT22;29217;52.586;13.442;2024-03-22T03:36:35;8.00;99.90
43627;DHT22;29217;52.586;13.442;2024-03-22T03:39:01;8.00;99.90
43627;DHT22;29217;52.586;13.442;2024-03-22T03:41:27;8.10;99.90
43627;DHT22;29217;52.586;13.442;2024-03-22T03:43:52;8.10;99.90
43627;DHT22;29217;52.586;13.442;2024-03-22T03:46:18;8.10;99.90
43627;DHT22;29217;52.586;13.442;2024-03-22T03:48:44;8.10;99.90
43627;DHT22;29217;52.586;13.442;2024-03-22T03:51:09;8.10;99.90
43627;DHT22;29217;52.586;13.442;2024-03-22T03:53:35;8.10;99.90
43627;DHT22;29217;52.586;13.442;2024-03-22T03:56:00;8.10;99.90
43627;DHT22;29217;52.586;13.442;2024-03-22T03:58:26;8.10;99.90
43627;DHT22;29217;52.586;13.442;2024-03-22T04:00:52;8.10;99.90
43627;DHT22;29217;52.586;13.442;2024-03-22T04:03:18;8.10;99.90
43627;DHT22;29217;52.586;13.442;2024-03-22T04:05:43;8.10;99.90
43627;DHT22;29217;52.586;13.442;2024-03-22T04:08:09;8.10;99.90
43627;DHT22;29217;52.586;13.442;2024-03-22T04:10:34;8.10;99.90
43627;DHT22;29217;52.586;13.442;2024-03-22T04:13:00;8.10;99.90
43627;DHT22;29217;52.586;13.442;2024-03-22T04:15:25;8.10;99.90
43627;DHT22;29217;52.586;13.442;2024-03-22T04:17:51;8.20;99.90
43627;DHT22;29217;52.586;13.442;2024-03-22T04:20:16;8.20;99.90
43627;DHT22;29217;52.586;13.442;2024-03-22T04:22:42;8.10;99.90
43627;DHT22;29217;52.586;13.442;2024-03-22T04:25:08;8.10;99.90
43627;DHT22;29217;52.586;13.442;2024-03-22T04:27:36;8.10;99.90
43627;DHT22;29217;52.586;13.442;2024-03-22T04:30:02;8.10;99.90
43627;DHT22;29217;52.586;13.442;2024-03-22T04:32:28;8.10;99.90
43627;DHT22;29217;52.586;13.442;2024-03-22T04:34:54;8.10;99.90
43627;DHT22;29217;52.586;13.442;2024-03-22T04:37:20;8.10;99.90
43627;DHT22;29217;52.586;13.442;2024-03-22T04:39:46;8.10;99.90
43627;DHT22;29217;52.586;13.442;2024-03-22T04:42:12;8.10;99.90
43627;DHT22;29217;52.586;13.442;2024-03-22T04:44:37;8.20;99.90
43627;DHT22;29217;52.586;13.442;2024-03-22T04:47:03;8.20;99.90
43627;DHT22;29217;52.586;13.442;2024-03-22T04:49:29;8.20;99.90
43627;DHT22;29217;52.586;13.442;2024-03-22T04:51:54;8.20;99.90
43627;DHT22;29217;52.586;13.442;2024-03-22T04:54:20;8.20;99.90
43627;DHT22;29217;52.586;13.442;2024-03-22T04:56:46;8.20;99.90
43627;DHT22;29217;52.586;13.442;2024-03-22T04:59:11;8.20;99.90
43627;DHT22;29217;52.586;13.442;2024-03-22T05:01:37;8.20;99.90
43627;DHT22;29217;52.586;13.442;2024-03-22T05:04:02;8.20;99.90
43627;DHT22;29217;52.586;13.442;2024-03-22T05:06:28;8.20;99.90
43627;DHT22;29217;52.586;13.442;2024-03-22T05:08:54;8.20;99.90
43627;DHT22;29217;52.586;13.442;2024-03-22T05:11:19;8.20;99.90
43627;DHT22;29217;52.586;13.442;2024-03-22T05:13:45;8.20;99.90
43627;DHT22;29217;52.586;13.442;2024-03-22T05:16:12;8.30;99.90
43627;DHT22;29217;52.586;13.442;2024-03-22T05:18:37;8.30;99.90
43627;DHT22;29217;52.586;13.442;2024-03-22T05:21:03;8.30;99.90
43627;DHT22;29217;52.586;13.442;2024-03-22T05:23:29;8.30;99.90
43627;DHT22;29217;52.586;13.442;2024-03-22T05:25:54;8.30;99.90
43627;DHT22;29217;52.586;13.442;2024-03-22T05:28:20;8.30;99.90
43627;DHT22;29217;52.586;13.442;2024-03-22T05:30:46;8.30;99.90
43627;DHT22;29217;52.586;13.442;2024-03-22T05:33:12;8.30;99.90
43627;DHT22;29217;52.586;13.442;2024-03-22T05:35:38;8.30;99.90
43627;DHT22;29217;52.586;13.442;2024-03-22T05:38:03;8.30;99.90
43627;DHT22;29217;52.586;13.442;2024-03-22T05:40:29;8.40;99.90
43627;DHT22;29217;52.586;13.442;2024-03-22T05:42:55;8.40;99.90
43627;DHT22;29217;52.586;13.442;2024-03-22T05:45:21;8.40;99.90
43627;DHT22;29217;52.586;13.442;2024-03-22T05:47:47;8.40;99.90
43627;DHT22;29217;52.586;13.442;2024-03-22T05:50:13;8.40;99.90
43627;DHT22;29217;52.586;13.442;2024-03-22T05:52:39;8.50;99.90
43627;DHT22;29217;52.586;13.442;2024-03-22T05:55:05;8.50;99.90
43627;DHT22;29217;52.586;13.442;2024-03-22T05:57:31;8.50;99.90
43627;DHT22;29217;52.586;13.442;2024-03-22T05:59:57;8.60;99.90
43627;DHT22;29217;52.586;13.442;2024-03-22T06:02:22;8.60;99.90
43627;DHT22;29217;52.586;13.442;2024-03-22T06:04:48;8.60;99.90
43627;DHT22;29217;52.586;13.442;2024-03-22T06:07:14;8.70;99.90
43627;DHT22;29217;52.586;13.442;2024-03-22T06:09:41;8.70;99.90
43627;DHT22;29217;52.586;13.442;2024-03-22T06:12:14;8.70;99.90
43627;DHT22;29217;52.586;13.442;2024-03-22T06:14:41;8.70;99.90
43627;DHT22;29217;52.586;13.442;2024-03-22T06:17:06;8.80;99.90
43627;DHT22;29217;52.586;13.442;2024-03-22T06:19:32;8.80;99.90
43627;DHT22;29217;52.586;13.442;2024-03-22T06:21:58;8.80;99.90
43627;DHT22;29217;52.586;13.442;2024-03-22T06:24:23;8.80;99.90
43627;DHT22;29217;52.586;13.442;2024-03-22T06:26:49;8.80;99.90
43627;DHT22;29217;52.586;13.442;2024-03-22T06:29:15;8.90;99.90
43627;DHT22;29217;52.586;13.442;2024-03-22T06:31:43;8.90;99.90
43627;DHT22;29217;52.586;13.442;2024-03-22T06:34:09;8.90;99.90
43627;DHT22;29217;52.586;13.442;2024-03-22T06:36:35;8.90;99.90
43627;DHT22;29217;52.586;13.442;2024-03-22T06:39:01;8.90;99.90
43627;DHT22;29217;52.586;13.442;2024-03-22T06:41:28;9.00;99.90
43627;DHT22;29217;52.586;13.442;2024-03-22T06:43:54;9.00;99.90
43627;DHT22;29217;52.586;13.442;2024-03-22T06:46:20;9.00;99.90
43627;DHT22;29217;52.586;13.442;2024-03-22T06:48:46;9.00;99.90
43627;DHT22;29217;52.586;13.442;2024-03-22T06:51:12;9.00;99.90
43627;DHT22;29217;52.586;13.442;2024-03-22T06:53:37;9.00;99.90
43627;DHT22;29217;52.586;13.442;2024-03-22T06:56:03;9.00;99.90
43627;DHT22;29217;52.586;13.442;2024-03-22T06:58:29;9.00;99.90
43627;DHT22;29217;52.586;13.442;2024-03-22T07:00:55;9.00;99.90
43627;DHT22;29217;52.586;13.442;2024-03-22T07:03:20;9.10;99.90
43627;DHT22;29217;52.586;13.442;2024-03-22T07:05:49;9.10;99.90
43627;DHT22;29217;52.586;13.442;2024-03-22T07:08:14;9.10;99.90
43627;DHT22;29217;52.586;13.442;2024-03-22T07:10:40;9.10;99.90
43627;DHT22;29217;52.586;13.442;2024-03-22T07:13:06;9.20;99.90
43627;DHT22;29217;52.586;13.442;2024-03-22T07:15:31;9.20;99.90
43627;DHT22;29217;52.586;13.442;2024-03-22T07:17:58;9.30;99.90
43627;DHT22;29217;52.586;13.442;2024-03-22T07:20:24;9.30;99.90
43627;DHT22;29217;52.586;13.442;2024-03-22T07:22:50;9.30;99.90
43627;DHT22;29217;52.586;13.442;2024-03-22T07:25:15;9.30;99.90
43627;DHT22;29217;52.586;13.442;2024-03-22T07:27:41;9.30;99.90
43627;DHT22;29217;52.586;13.442;2024-03-22T07:30:07;9.30;99.90
43627;DHT22;29217;52.586;13.442;2024-03-22T07:32:33;9.30;99.90
43627;DHT22;29217;52.586;13.442;2024-03-22T07:34:58;9.30;99.90
43627;DHT22;29217;52.586;13.442;2024-03-22T07:37:24;9.30;99.90
43627;DHT22;29217;52.586;13.442;2024-03-22T07:39:50;9.30;99.90
43627;DHT22;29217;52.586;13.442;2024-03-22T07:42:16;9.30;99.90
43627;DHT22;29217;52.586;13.442;2024-03-22T07:44:42;9.30;99.90
43627;DHT22;29217;52.586;13.442;2024-03-22T07:47:08;9.30;99.90
43627;DHT22;29217;52.586;13.442;2024-03-22T07:49:33;9.40;99.90
43627;DHT22;29217;52.586;13.442;2024-03-22T07:52:00;9.40;99.90
43627;DHT22;29217;52.586;13.442;2024-03-22T07:54:25;9.40;99.90
43627;DHT22;29217;52.586;13.442;2024-03-22T07:56:51;9.50;99.90
43627;DHT22;29217;52.586;13.442;2024-03-22T07:59:17;9.50;99.90
43627;DHT22;29217;52.586;13.442;2024-03-22T08:01:42;9.60;99.90
43627;DHT22;29217;52.586;13.442;2024-03-22T08:04:08;9.60;99.90
43627;DHT22;29217;52.586;13.442;2024-03-22T08:06:33;9.60;99.90
43627;DHT22;29217;52.586;13.442;2024-03-22T08:08:59;9.70;99.90
43627;DHT22;29217;52.586;13.442;2024-03-22T08:11:27;9.60;99.90
43627;DHT22;29217;52.586;13.442;2024-03-22T08:13:52;9.70;99.90
43627;DHT22;29217;52.586;13.442;2024-03-22T08:16:19;9.70;99.90
43627;DHT22;29217;52.586;13.442;2024-03-22T08:18:45;9.80;99.90
43627;DHT22;29217;52.586;13.442;2024-03-22T08:21:10;9.80;99.90
43627;DHT22;29217;52.586;13.442;2024-03-22T08:23:36;9.80;99.90
43627;DHT22;29217;52.586;13.442;2024-03-22T08:26:01;9.90;99.90
43627;DHT22;29217;52.586;13.442;2024-03-22T08:28:27;9.90;99.90
43627;DHT22;29217;52.586;13.442;2024-03-22T08:30:53;9.90;99.90
43627;DHT22;29217;52.586;13.442;2024-03-22T08:33:18;9.90;99.90
43627;DHT22;29217;52.586;13.442;2024-03-22T08:35:44;9.90;99.90
43627;DHT22;29217;52.586;13.442;2024-03-22T08:38:10;9.90;99.90
43627;DHT22;29217;52.586;13.442;2024-03-22T08:40:37;9.90;99.90
43627;DHT22;29217;52.586;13.442;2024-03-22T08:43:03;9.90;99.90
43627;DHT22;29217;52.586;13.442;2024-03-22T08:45:29;10.00;99.90
43627;DHT22;29217;52.586;13.442;2024-03-22T08:47:54;10.00;99.90
43627;DHT22;29217;52.586;13.442;2024-03-22T08:50:20;10.00;99.90
43627;DHT22;29217;52.586;13.442;2024-03-22T08:52:46;10.10;99.90
43627;DHT22;29217;52.586;13.442;2024-03-22T08:55:11;10.10;99.90
43627;DHT22;29217;52.586;13.442;2024-03-22T08:57:38;10.20;99.90
43627;DHT22;29217;52.586;13.442;2024-03-22T09:00:04;10.30;99.90
43627;DHT22;29217;52.586;13.442;2024-03-22T09:02:30;10.30;99.90
43627;DHT22;29217;52.586;13.442;2024-03-22T09:04:56;10.30;99.90
43627;DHT22;29217;52.586;13.442;2024-03-22T09:07:21;10.40;99.90
43627;DHT22;29217;52.586;13.442;2024-03-22T09:09:47;10.40;99.90
43627;DHT22;29217;52.586;13.442;2024-03-22T09:12:12;10.50;99.90
43627;DHT22;29217;52.586;13.442;2024-03-22T09:14:38;10.50;99.90
43627;DHT22;29217;52.586;13.442;2024-03-22T09:17:04;10.60;99.90
43627;DHT22;29217;52.586;13.442;2024-03-22T09:19:29;10.60;99.90
43627;DHT22;29217;52.586;13.442;2024-03-22T09:21:55;10.70;99.90
43627;DHT22;29217;52.586;13.442;2024-03-22T09:24:20;10.70;99.90
43627;DHT22;29217;52.586;13.442;2024-03-22T09:26:46;10.80;99.90
43627;DHT22;29217;52.586;13.442;2024-03-22T09:29:13;10.80;99.90
43627;DHT22;29217;52.586;13.442;2024-03-22T09:31:39;10.90;99.90
43627;DHT22;29217;52.586;13.442;2024-03-22T09:34:04;10.90;99.90
43627;DHT22;29217;52.586;13.442;2024-03-22T09:36:31;11.00;99.90
43627;DHT22;29217;52.586;13.442;2024-03-22T09:39:01;11.10;99.90
43627;DHT22;29217;52.586;13.442;2024-03-22T09:41:26;11.20;99.90
43627;DHT22;29217;52.586;13.442;2024-03-22T09:43:53;11.20;99.90
43627;DHT22;29217;52.586;13.442;2024-03-22T09:46:19;11.30;99.90
43627;DHT22;29217;52.586;13.442;2024-03-22T09:48:48;11.30;99.90
43627;DHT22;29217;52.586;13.442;2024-03-22T09:51:16;11.40;99.90
43627;DHT22;29217;52.586;13.442;2024-03-22T09:53:45;11.30;99.90
43627;DHT22;29217;52.586;13.442;2024-03-22T09:56:14;11.30;99.90
43627;DHT22;29217;52.586;13.442;2024-03-22T09:58:44;11.40;99.90
43627;DHT22;29217;52.586;13.442;2024-03-22T10:01:11;11.50;99.90
43627;DHT22;29217;52.586;13.442;2024-03-22T10:03:37;11.50;99.90
43627;DHT22;29217;52.586;13.442;2024-03-22T10:06:03;11.50;99.90
43627;DHT22;29217;52.586;13.442;2024-03-22T10:08:30;11.60;99.90
43627;DHT22;29217;52.586;13.442;2024-03-22T10:10:55;11.70;99.90
43627;DHT22;29217;52.586;13.442;2024-03-22T10:13:21;11.70;99.90
43627;DHT22;29217;52.586;13.442;2024-03-22T10:15:47;11.70;99.90
43627;DHT22;29217;52.586;13.442;2024-03-22T10:18:12;11.70;99.90
43627;DHT22;29217;52.586;13.442;2024-03-22T10:20:40;11.80;99.90
43627;DHT22;29217;52.586;13.442;2024-03-22T10:23:08;11.90;99.90
43627;DHT22;29217;52.586;13.442;2024-03-22T10:25:34;11.90;99.90
43627;DHT22;29217;52.586;13.442;2024-03-22T10:28:00;12.00;99.90
43627;DHT22;29217;52.586;13.442;2024-03-22T10:30:26;12.00;99.90
43627;DHT22;29217;52.586;13.442;2024-03-22T10:32:52;12.00;99.90
43627;DHT22;29217;52.586;13.442;2024-03-22T10:35:18;12.10;99.90
43627;DHT22;29217;52.586;13.442;2024-03-22T10:37:44;12.20;99.90
43627;DHT22;29217;52.586;13.442;2024-03-22T10:40:10;12.30;99.90
43627;DHT22;29217;52.586;13.442;2024-03-22T10:42:38;12.30;99.90
43627;DHT22;29217;52.586;13.442;2024-03-22T10:45:10;12.30;99.90
43627;DHT22;29217;52.586;13.442;2024-03-22T10:47:37;12.40;99.90
43627;DHT22;29217;52.586;13.442;2024-03-22T10:50:10;12.60;99.90
43627;DHT22;29217;52.586;13.442;2024-03-22T10:52:46;12.80;99.90
43627;DHT22;29217;52.586;13.442;2024-03-22T10:55:33;12.80;99.90
43627;DHT22;29217;52.586;13.442;2024-03-22T10:57:59;12.80;99.90
43627;DHT22;29217;52.586;13.442;2024-03-22T11:00:32;12.80;99.90
43627;DHT22;29217;52.586;13.442;2024-03-22T11:02:59;12.90;99.90
43627;DHT22;29217;52.586;13.442;2024-03-22T11:05:27;12.90;99.90
43627;DHT22;29217;52.586;13.442;2024-03-22T11:10:50;12.80;99.90
43627;DHT22;29217;52.586;13.442;2024-03-22T11:13:17;12.70;99.90
43627;DHT22;29217;52.586;13.442;2024-03-22T11:15:43;12.60;99.90
43627;DHT22;29217;52.586;13.442;2024-03-22T11:18:08;12.70;99.90
43627;DHT22;29217;52.586;13.442;2024-03-22T11:20:37;12.70;99.90
43627;DHT22;29217;52.586;13.442;2024-03-22T11:23:04;12.70;99.90
43627;DHT22;29217;52.586;13.442;2024-03-22T11:25:33;12.60;99.90
43627;DHT22;29217;52.586;13.442;2024-03-22T11:28:00;12.50;99.90
43627;DHT22;29217;52.586;13.442;2024-03-22T11:30:29;12.40;99.90
43627;DHT22;29217;52.586;13.442;2024-03-22T11:32:55;12.30;99.90
43627;DHT22;29217;52.586;13.442;2024-03-22T11:35:21;12.30;99.90
43627;DHT22;29217;52.586;13.442;2024-03-22T11:37:47;12.30;99.90
43627;DHT22;29217;52.586;13.442;2024-03-22T11:40:14;12.30;99.90
43627;DHT22;29217;52.586;13.442;2024-03-22T11:42:41;12.30;99.90
43627;DHT22;29217;52.586;13.442;2024-03-22T11:45:10;12.20;99.90
43627;DHT22;29217;52.586;13.442;2024-03-22T11:47:36;12.10;99.90
43627;DHT22;29217;52.586;13.442;2024-03-22T11:50:02;12.10;99.90
43627;DHT22;29217;52.586;13.442;2024-03-22T11:52:29;12.00;99.90
43627;DHT22;29217;52.586;13.442;2024-03-22T11:54:55;11.80;99.90
43627;DHT22;29217;52.586;13.442;2024-03-22T11:57:21;11.80;99.90
43627;DHT22;29217;52.586;13.442;2024-03-22T11:59:47;11.70;99.90
43627;DHT22;29217;52.586;13.442;2024-03-22T12:02:13;11.70;99.90
43627;DHT22;29217;52.586;13.442;2024-03-22T12:04:46;11.80;99.90
43627;DHT22;29217;52.586;13.442;2024-03-22T12:07:16;11.80;99.90
43627;DHT22;29217;52.586;13.442;2024-03-22T12:09:42;11.80;99.90
43627;DHT22;29217;52.586;13.442;2024-03-22T12:12:10;11.80;99.90
43627;DHT22;29217;52.586;13.442;2024-03-22T12:14:36;11.80;99.90
43627;DHT22;29217;52.586;13.442;2024-03-22T12:17:02;11.70;99.90
43627;DHT22;29217;52.586;13.442;2024-03-22T12:19:28;11.70;99.90
43627;DHT22;29217;52.586;13.442;2024-03-22T12:21:54;11.60;99.90
43627;DHT22;29217;52.586;13.442;2024-03-22T12:24:20;11.50;99.90
43627;DHT22;29217;52.586;13.442;2024-03-22T12:26:46;11.40;99.90
43627;DHT22;29217;52.586;13.442;2024-03-22T12:29:12;11.30;99.90
43627;DHT22;29217;52.586;13.442;2024-03-22T12:31:38;11.30;99.90
43627;DHT22;29217;52.586;13.442;2024-03-22T12:34:04;11.20;99.90
43627;DHT22;29217;52.586;13.442;2024-03-22T12:36:30;11.10;99.90
43627;DHT22;29217;52.586;13.442;2024-03-22T12:38:55;11.10;99.90
43627;DHT22;29217;52.586;13.442;2024-03-22T12:41:21;11.10;99.90
43627;DHT22;29217;52.586;13.442;2024-03-22T12:43:47;11.00;99.90
43627;DHT22;29217;52.586;13.442;2024-03-22T12:46:12;10.90;99.90
43627;DHT22;29217;52.586;13.442;2024-03-22T12:48:38;10.90;99.90
43627;DHT22;29217;52.586;13.442;2024-03-22T12:51:04;10.90;99.90
43627;DHT22;29217;52.586;13.442;2024-03-22T12:53:29;10.80;99.90
43627;DHT22;29217;52.586;13.442;2024-03-22T12:55:55;10.90;99.90
43627;DHT22;29217;52.586;13.442;2024-03-22T12:58:20;10.90;99.90
43627;DHT22;29217;52.586;13.442;2024-03-22T13:00:46;10.80;99.90
43627;DHT22;29217;52.586;13.442;2024-03-22T13:03:12;10.90;99.90
43627;DHT22;29217;52.586;13.442;2024-03-22T13:05:38;10.80;99.90
43627;DHT22;29217;52.586;13.442;2024-03-22T13:08:05;10.90;99.90
43627;DHT22;29217;52.586;13.442;2024-03-22T13:10:30;10.80;99.90
43627;DHT22;29217;52.586;13.442;2024-03-22T13:12:56;10.80;99.90
43627;DHT22;29217;52.586;13.442;2024-03-22T13:15:22;10.80;99.90
43627;DHT22;29217;52.586;13.442;2024-03-22T13:17:48;10.80;99.90
43627;DHT22;29217;52.586;13.442;2024-03-22T13:20:14;10.80;99.90
43627;DHT22;29217;52.586;13.442;2024-03-22T13:22:40;10.80;99.90
43627;DHT22;29217;52.586;13.442;2024-03-22T13:25:07;10.80;99.90
43627;DHT22;29217;52.586;13.442;2024-03-22T13:27:34;10.80;99.90
43627;DHT22;29217;52.586;13.442;2024-03-22T13:30:01;10.90;99.90
43627;DHT22;29217;52.586;13.442;2024-03-22T13:32:27;10.90;99.90
43627;DHT22;29217;52.586;13.442;2024-03-22T13:34:52;10.90;99.90
43627;DHT22;29217;52.586;13.442;2024-03-22T13:37:18;11.00;99.90
43627;DHT22;29217;52.586;13.442;2024-03-22T13:39:50;10.90;99.90
43627;DHT22;29217;52.586;13.442;2024-03-22T13:42:16;10.90;99.90
43627;DHT22;29217;52.586;13.442;2024-03-22T13:44:42;10.90;99.90
43627;DHT22;29217;52.586;13.442;2024-03-22T13:47:08;10.90;99.90
43627;DHT22;29217;52.586;13.442;2024-03-22T13:49:34;10.90;99.90
43627;DHT22;29217;52.586;13.442;2024-03-22T13:51:59;10.90;99.90
43627;DHT22;29217;52.586;13.442;2024-03-22T13:54:25;10.90;99.90
43627;DHT22;29217;52.586;13.442;2024-03-22T13:56:50;10.90;99.90
43627;DHT22;29217;52.586;13.442;2024-03-22T13:59:16;10.90;99.90
43627;DHT22;29217;52.586;13.442;2024-03-22T14:01:42;10.90;99.90
43627;DHT22;29217;52.586;13.442;2024-03-22T14:04:11;10.90;99.90
43627;DHT22;29217;52.586;13.442;2024-03-22T14:06:38;10.90;99.90
43627;DHT22;29217;52.586;13.442;2024-03-22T14:09:03;10.90;99.90
43627;DHT22;29217;52.586;13.442;2024-03-22T14:11:30;10.90;99.90
43627;DHT22;29217;52.586;13.442;2024-03-22T14:13:57;10.90;99.90
43627;DHT22;29217;52.586;13.442;2024-03-22T14:16:22;10.90;99.90
43627;DHT22;29217;52.586;13.442;2024-03-22T14:18:48;10.90;99.90
43627;DHT22;29217;52.586;13.442;2024-03-22T14:21:15;10.90;99.90
43627;DHT22;29217;52.586;13.442;2024-03-22T14:23:46;10.90;99.90
43627;DHT22;29217;52.586;13.442;2024-03-22T14:26:11;10.90;99.90
43627;DHT22;29217;52.586;13.442;2024-03-22T14:28:38;10.90;99.90
43627;DHT22;29217;52.586;13.442;2024-03-22T14:31:09;10.80;99.90
43627;DHT22;29217;52.586;13.442;2024-03-22T14:33:35;10.80;99.90
43627;DHT22;29217;52.586;13.442;2024-03-22T14:36:02;10.80;99.90
43627;DHT22;29217;52.586;13.442;2024-03-22T14:38:28;10.90;99.90
43627;DHT22;29217;52.586;13.442;2024-03-22T14:40:54;10.90;99.90
43627;DHT22;29217;52.586;13.442;2024-03-22T14:43:21;10.90;99.90
43627;DHT22;29217;52.586;13.442;2024-03-22T14:45:46;10.90;99.90
43627;DHT22;29217;52.586;13.442;2024-03-22T14:48:12;11.00;99.90
43627;DHT22;29217;52.586;13.442;2024-03-22T14:50:37;11.00;99.90
43627;DHT22;29217;52.586;13.442;2024-03-22T14:53:06;11.10;99.90
43627;DHT22;29217;52.586;13.442;2024-03-22T14:55:31;11.10;99.90
43627;DHT22;29217;52.586;13.442;2024-03-22T14:57:57;11.10;99.90
43627;DHT22;29217;52.586;13.442;2024-03-22T15:00:22;11.20;99.90
43627;DHT22;29217;52.586;13.442;2024-03-22T15:02:52;11.20;99.90
43627;DHT22;29217;52.586;13.442;2024-03-22T15:05:18;11.20;99.90
43627;DHT22;29217;52.586;13.442;2024-03-22T15:07:43;11.20;99.90
43627;DHT22;29217;52.586;13.442;2024-03-22T15:10:09;11.30;99.90
43627;DHT22;29217;52.586;13.442;2024-03-22T15:12:35;11.20;99.90
43627;DHT22;29217;52.586;13.442;2024-03-22T15:15:00;11.30;99.90
43627;DHT22;29217;52.586;13.442;2024-03-22T15:17:26;11.20;99.90
43627;DHT22;29217;52.586;13.442;2024-03-22T15:19:52;11.30;99.90
43627;DHT22;29217;52.586;13.442;2024-03-22T15:22:17;11.30;99.90